Time,TemperatureF,DewpointF,PressureIn,WindDirection,WindDirectionDegrees,WindSpeedMPH,WindSpeedGustMPH,Humidity,HourlyPrecipIn,Conditions,Clouds,dailyrainin,SoftwareType,DateUTC
2013-02-15 00:03:00,56.3,48.8,30.00,East,98,2.0,6.0,76,0.00,,---,0.00,VWS V14.01,2013-02-15 06:03:00,
2013-02-15 00:08:00,56.5,49.0,30.00,East,98,3.0,7.0,76,0.00,,---,0.00,VWS V14.01,2013-02-15 06:08:00,
2013-02-15 00:13:00,56.6,48.8,30.00,East,98,1.0,7.0,75,0.00,,---,0.00,VWS V14.01,2013-02-15 06:13:00,
2013-02-15 00:18:00,56.6,48.8,30.00,East,98,2.0,4.0,75,0.00,,---,0.00,VWS V14.01,2013-02-15 06:18:00,
2013-02-15 00:23:00,56.7,48.9,30.00,East,98,2.0,4.0,75,0.00,,---,0.00,VWS V14.01,2013-02-15 06:23:00,
2013-02-15 00:28:00,56.6,48.8,30.00,East,98,2.0,4.0,75,0.00,,---,0.00,VWS V14.01,2013-02-15 06:28:00,
2013-02-15 00:33:00,56.6,48.8,30.00,East,98,1.0,3.0,75,0.00,,---,0.00,VWS V14.01,2013-02-15 06:33:00,
2013-02-15 00:38:00,56.6,48.8,30.00,East,98,1.0,3.0,75,0.00,,---,0.00,VWS V14.01,2013-02-15 06:38:00,
2013-02-15 00:43:00,56.5,48.7,30.00,East,98,2.0,3.0,75,0.00,,---,0.00,VWS V14.01,2013-02-15 06:43:00,
2013-02-15 00:48:00,56.3,48.8,30.00,East,98,1.0,3.0,76,0.00,,---,0.00,VWS V14.01,2013-02-15 06:48:00,
2013-02-15 00:53:00,56.3,48.8,30.00,East,98,1.0,3.0,76,0.00,,---,0.00,VWS V14.01,2013-02-15 06:53:00,
2013-02-15 00:58:00,56.2,49.1,30.00,East,98,2.0,3.0,77,0.00,,---,0.00,VWS V14.01,2013-02-15 06:58:00,
2013-02-15 01:03:00,56.2,49.1,30.00,East,98,1.0,2.0,77,0.00,,---,0.00,VWS V14.01,2013-02-15 07:03:00,
2013-02-15 01:08:00,56.2,49.1,30.00,East,98,1.0,4.0,77,0.00,,---,0.00,VWS V14.01,2013-02-15 07:08:00,
2013-02-15 01:13:00,56.0,48.9,30.00,East,98,1.0,4.0,77,0.00,,---,0.00,VWS V14.01,2013-02-15 07:13:00,
2013-02-15 01:18:00,55.9,49.2,30.00,East,98,2.0,3.0,78,0.00,,---,0.00,VWS V14.01,2013-02-15 07:18:00,
2013-02-15 01:23:00,55.9,49.2,30.00,East,98,1.0,3.0,78,0.00,,---,0.00,VWS V14.01,2013-02-15 07:23:00,
2013-02-15 01:28:00,55.9,49.2,30.00,East,98,1.0,3.0,78,0.00,,---,0.00,VWS V14.01,2013-02-15 07:28:00,
2013-02-15 01:33:00,55.9,49.2,30.01,East,98,2.0,2.0,78,0.00,,---,0.00,VWS V14.01,2013-02-15 07:33:00,
2013-02-15 01:38:00,55.9,49.2,30.01,East,98,1.0,3.0,78,0.00,,---,0.00,VWS V14.01,2013-02-15 07:38:00,
2013-02-15 01:43:00,55.7,49.3,30.01,East,98,1.0,3.0,79,0.00,,---,0.00,VWS V14.01,2013-02-15 07:43:00,
2013-02-15 01:48:00,55.7,49.3,30.01,East,98,1.0,3.0,79,0.00,,---,0.00,VWS V14.01,2013-02-15 07:48:00,
2013-02-15 01:53:00,55.6,49.2,30.01,East,98,1.0,3.0,79,0.00,,---,0.00,VWS V14.01,2013-02-15 07:53:00,
2013-02-15 01:58:00,55.6,49.5,30.01,East,98,2.0,3.0,80,0.00,,---,0.00,VWS V14.01,2013-02-15 07:58:00,
2013-02-15 02:03:00,55.6,49.5,30.01,East,98,1.0,1.0,80,0.00,,---,0.00,VWS V14.01,2013-02-15 08:03:00,
2013-02-15 02:08:00,55.6,49.5,30.01,East,98,1.0,2.0,80,0.00,,---,0.00,VWS V14.01,2013-02-15 08:08:00,
2013-02-15 02:13:00,55.6,49.9,30.01,East,98,1.0,2.0,81,0.00,,---,0.00,VWS V14.01,2013-02-15 08:13:00,
2013-02-15 02:18:00,55.6,49.9,30.02,East,98,1.0,1.0,81,0.00,,---,0.00,VWS V14.01,2013-02-15 08:18:00,
2013-02-15 02:23:00,55.4,49.7,30.02,East,98,1.0,1.0,81,0.00,,---,0.00,VWS V14.01,2013-02-15 08:23:00,
2013-02-15 02:28:00,55.0,49.0,30.02,East,98,1.0,1.0,80,0.00,,---,0.00,VWS V14.01,2013-02-15 08:28:00,
2013-02-15 02:33:00,54.5,48.8,30.01,East,98,1.0,1.0,81,0.00,,---,0.00,VWS V14.01,2013-02-15 08:33:00,
2013-02-15 02:38:00,54.1,48.4,30.01,East,98,1.0,1.0,81,0.00,,---,0.00,VWS V14.01,2013-02-15 08:38:00,
2013-02-15 02:43:00,53.8,48.4,30.01,East,98,1.0,1.0,82,0.00,,---,0.00,VWS V14.01,2013-02-15 08:43:00,
2013-02-15 02:48:00,53.5,48.5,30.01,East,98,1.0,1.0,83,0.00,,---,0.00,VWS V14.01,2013-02-15 08:48:00,
2013-02-15 02:53:00,53.2,48.2,30.01,East,98,1.0,1.0,83,0.00,,---,0.00,VWS V14.01,2013-02-15 08:53:00,
2013-02-15 02:58:00,52.9,48.2,30.01,East,98,1.0,1.0,84,0.00,,---,0.00,VWS V14.01,2013-02-15 08:58:00,
2013-02-15 03:04:00,52.6,47.9,30.01,East,98,1.0,1.0,84,0.00,,---,0.00,VWS V14.01,2013-02-15 09:04:00,
2013-02-15 03:09:00,52.3,47.9,30.01,East,98,1.0,1.0,85,0.00,,---,0.00,VWS V14.01,2013-02-15 09:09:00,
2013-02-15 03:14:00,52.2,48.2,30.01,East,98,1.0,1.0,86,0.00,,---,0.00,VWS V14.01,2013-02-15 09:14:00,
2013-02-15 03:19:00,52.2,48.5,30.01,East,98,1.0,1.0,87,0.00,,---,0.00,VWS V14.01,2013-02-15 09:19:00,
2013-02-15 03:24:00,52.0,48.3,30.01,East,98,1.0,1.0,87,0.00,,---,0.00,VWS V14.01,2013-02-15 09:24:00,
2013-02-15 03:29:00,51.9,48.2,30.01,East,98,1.0,1.0,87,0.00,,---,0.00,VWS V14.01,2013-02-15 09:29:00,
2013-02-15 03:34:00,51.7,48.3,30.01,East,98,1.0,1.0,88,0.00,,---,0.00,VWS V14.01,2013-02-15 09:34:00,
2013-02-15 03:39:00,52.0,48.6,30.01,East,98,1.0,1.0,88,0.00,,---,0.00,VWS V14.01,2013-02-15 09:39:00,
2013-02-15 03:44:00,52.2,48.8,30.01,East,98,1.0,1.0,88,0.00,,---,0.00,VWS V14.01,2013-02-15 09:44:00,
2013-02-15 03:49:00,52.5,49.0,30.01,East,98,1.0,1.0,88,0.00,,---,0.00,VWS V14.01,2013-02-15 09:49:00,
2013-02-15 03:54:00,52.5,49.0,30.01,East,98,1.0,1.0,88,0.00,,---,0.00,VWS V14.01,2013-02-15 09:54:00,
2013-02-15 03:59:00,52.6,49.2,30.01,East,98,1.0,1.0,88,0.00,,---,0.00,VWS V14.01,2013-02-15 09:59:00,
2013-02-15 04:04:00,52.6,49.5,30.02,East,98,1.0,1.0,89,0.00,,---,0.00,VWS V14.01,2013-02-15 10:04:00,
2013-02-15 04:09:00,52.8,49.7,30.02,East,98,1.0,1.0,89,0.00,,---,0.00,VWS V14.01,2013-02-15 10:09:00,
2013-02-15 04:14:00,52.8,49.7,30.02,East,98,1.0,1.0,89,0.00,,---,0.00,VWS V14.01,2013-02-15 10:14:00,
2013-02-15 04:19:00,52.8,49.7,30.02,East,98,1.0,1.0,89,0.00,,---,0.00,VWS V14.01,2013-02-15 10:19:00,
2013-02-15 04:24:00,52.8,50.0,30.02,East,98,1.0,1.0,90,0.00,,---,0.00,VWS V14.01,2013-02-15 10:24:00,
2013-02-15 04:29:00,52.9,50.0,30.02,East,98,1.0,1.0,90,0.00,,---,0.00,VWS V14.01,2013-02-15 10:29:00,
2013-02-15 04:34:00,53.2,50.3,30.02,East,98,1.0,1.0,90,0.00,,---,0.00,VWS V14.01,2013-02-15 10:34:00,
2013-02-15 04:39:00,53.5,50.6,30.02,East,98,1.0,2.0,90,0.00,,---,0.00,VWS V14.01,2013-02-15 10:39:00,
2013-02-15 04:44:00,53.9,51.0,30.01,East,98,1.0,2.0,90,0.00,,---,0.00,VWS V14.01,2013-02-15 10:44:00,
2013-02-15 04:49:00,54.2,51.3,30.01,East,98,1.0,2.0,90,0.00,,---,0.00,VWS V14.01,2013-02-15 10:49:00,
2013-02-15 04:54:00,54.7,51.5,30.01,East,98,1.0,2.0,89,0.00,,---,0.00,VWS V14.01,2013-02-15 10:54:00,
2013-02-15 04:59:00,54.8,51.3,30.02,East,98,1.0,2.0,88,0.00,,---,0.00,VWS V14.01,2013-02-15 10:59:00,
2013-02-15 05:04:00,55.3,51.8,30.02,East,90,4.0,4.0,88,0.00,,---,0.00,VWS V14.01,2013-02-15 11:04:00,
2013-02-15 05:09:00,55.7,51.6,30.02,East,90,1.0,4.0,86,0.00,,---,0.00,VWS V14.01,2013-02-15 11:09:00,
2013-02-15 05:14:00,56.2,51.4,30.01,East,87,1.0,6.0,84,0.00,,---,0.00,VWS V14.01,2013-02-15 11:14:00,
2013-02-15 05:19:00,56.5,51.4,30.01,East,87,1.0,7.0,83,0.00,,---,0.00,VWS V14.01,2013-02-15 11:19:00,
2013-02-15 05:24:00,56.9,51.1,30.01,ENE,62,1.0,8.0,81,0.00,,---,0.00,VWS V14.01,2013-02-15 11:24:00,
2013-02-15 05:29:00,57.2,51.1,30.02,ENE,62,1.0,8.0,80,0.00,,---,0.00,VWS V14.01,2013-02-15 11:29:00,
2013-02-15 05:34:00,57.3,51.2,30.02,ENE,62,1.0,3.0,80,0.00,,---,0.00,VWS V14.01,2013-02-15 11:34:00,
2013-02-15 05:39:00,57.3,50.8,30.02,ENE,62,1.0,3.0,79,0.00,,---,0.00,VWS V14.01,2013-02-15 11:39:00,
2013-02-15 05:44:00,57.2,50.8,30.03,ENE,62,1.0,3.0,79,0.00,,---,0.00,VWS V14.01,2013-02-15 11:44:00,
2013-02-15 05:49:00,56.7,50.6,30.03,ENE,62,1.0,1.0,80,0.00,,---,0.00,VWS V14.01,2013-02-15 11:49:00,
2013-02-15 05:54:00,56.6,50.8,30.03,ENE,62,1.0,1.0,81,0.00,,---,0.00,VWS V14.01,2013-02-15 11:54:00,
2013-02-15 05:59:00,56.3,50.5,30.03,ENE,62,1.0,1.0,81,0.00,,---,0.00,VWS V14.01,2013-02-15 11:59:00,
2013-02-15 06:04:00,56.3,50.5,30.03,ENE,62,1.0,2.0,81,0.00,,---,0.00,VWS V14.01,2013-02-15 12:04:00,
2013-02-15 06:09:00,55.6,49.9,30.03,ENE,62,1.0,2.0,81,0.00,,---,0.00,VWS V14.01,2013-02-15 12:09:00,
2013-02-15 06:14:00,54.8,49.4,30.04,ENE,62,1.0,3.0,82,0.00,,---,0.00,VWS V14.01,2013-02-15 12:14:00,
2013-02-15 06:20:00,54.1,49.1,30.04,ENE,62,1.0,2.0,83,0.00,,---,0.00,VWS V14.01,2013-02-15 12:20:00,
2013-02-15 06:25:00,53.6,48.9,30.04,ENE,62,1.0,2.0,84,0.00,,---,0.00,VWS V14.01,2013-02-15 12:25:00,
2013-02-15 06:30:00,53.2,48.5,30.05,ENE,62,1.0,2.0,84,0.00,,---,0.00,VWS V14.01,2013-02-15 12:30:00,
2013-02-15 06:35:00,52.8,48.4,30.05,ENE,62,1.0,1.0,85,0.00,,---,0.00,VWS V14.01,2013-02-15 12:35:00,
2013-02-15 06:40:00,52.3,47.9,30.05,ENE,62,1.0,1.0,85,0.00,,---,0.00,VWS V14.01,2013-02-15 12:40:00,
2013-02-15 06:45:00,52.0,48.0,30.05,ENE,62,1.0,1.0,86,0.00,,---,0.00,VWS V14.01,2013-02-15 12:45:00,
2013-02-15 06:50:00,51.6,47.6,30.05,ENE,62,1.0,1.0,86,0.00,,---,0.00,VWS V14.01,2013-02-15 12:50:00,
2013-02-15 06:55:00,51.3,47.6,30.05,ENE,62,1.0,1.0,87,0.00,,---,0.00,VWS V14.01,2013-02-15 12:55:00,
2013-02-15 07:00:00,51.0,47.3,30.06,ENE,62,1.0,1.0,87,0.00,,---,0.00,VWS V14.01,2013-02-15 13:00:00,
2013-02-15 07:05:00,51.0,47.6,30.06,ENE,62,1.0,1.0,88,0.00,,---,0.00,VWS V14.01,2013-02-15 13:05:00,
2013-02-15 07:10:00,50.7,47.3,30.06,ENE,62,1.0,1.0,88,0.00,,---,0.00,VWS V14.01,2013-02-15 13:10:00,
2013-02-15 07:15:00,50.5,47.4,30.06,ENE,62,1.0,1.0,89,0.00,,---,0.00,VWS V14.01,2013-02-15 13:15:00,
2013-02-15 07:20:00,50.4,47.3,30.06,ENE,62,1.0,1.0,89,0.00,,---,0.00,VWS V14.01,2013-02-15 13:20:00,
2013-02-15 07:25:00,50.2,47.1,30.06,ENE,62,1.0,1.0,89,0.00,,---,0.00,VWS V14.01,2013-02-15 13:25:00,
2013-02-15 07:30:00,50.2,47.4,30.06,ENE,62,1.0,1.0,90,0.00,,---,0.00,VWS V14.01,2013-02-15 13:30:00,
2013-02-15 07:35:00,50.2,47.4,30.06,ENE,62,1.0,1.0,90,0.00,,---,0.00,VWS V14.01,2013-02-15 13:35:00,
2013-02-15 07:40:00,50.2,47.4,30.06,ENE,62,1.0,1.0,90,0.00,,---,0.00,VWS V14.01,2013-02-15 13:40:00,
2013-02-15 07:45:00,50.5,47.7,30.07,ENE,62,1.0,1.0,90,0.00,,---,0.00,VWS V14.01,2013-02-15 13:45:00,
2013-02-15 07:50:00,50.8,48.3,30.07,ENE,62,1.0,1.0,91,0.00,,---,0.00,VWS V14.01,2013-02-15 13:50:00,
2013-02-15 07:55:00,51.6,49.1,30.07,ENE,62,1.0,1.0,91,0.00,,---,0.00,VWS V14.01,2013-02-15 13:55:00,
2013-02-15 08:00:00,52.2,49.7,30.08,ENE,62,1.0,1.0,91,0.00,,---,0.00,VWS V14.01,2013-02-15 14:00:00,
2013-02-15 08:05:00,52.6,49.8,30.08,ENE,62,1.0,1.0,90,0.00,,---,0.00,VWS V14.01,2013-02-15 14:05:00,
2013-02-15 08:10:00,53.2,50.3,30.08,ENE,62,1.0,1.0,90,0.00,,---,0.00,VWS V14.01,2013-02-15 14:10:00,
2013-02-15 08:15:00,53.8,50.9,30.09,ENE,62,1.0,1.0,90,0.00,,---,0.00,VWS V14.01,2013-02-15 14:15:00,
2013-02-15 08:20:00,54.4,51.5,30.09,ENE,62,1.0,1.0,90,0.00,,---,0.00,VWS V14.01,2013-02-15 14:20:00,
2013-02-15 08:25:00,55.1,51.9,30.09,ENE,62,1.0,1.0,89,0.00,,---,0.00,VWS V14.01,2013-02-15 14:25:00,
2013-02-15 08:30:00,55.9,52.4,30.09,ENE,62,1.0,1.0,88,0.00,,---,0.00,VWS V14.01,2013-02-15 14:30:00,
2013-02-15 08:35:00,56.7,52.9,30.09,ENE,62,1.0,1.0,87,0.00,,---,0.00,VWS V14.01,2013-02-15 14:35:00,
2013-02-15 08:40:00,57.8,53.3,30.09,ENE,62,1.0,1.0,85,0.00,,---,0.00,VWS V14.01,2013-02-15 14:40:00,
2013-02-15 08:45:00,58.4,53.3,30.10,ENE,62,1.0,1.0,83,0.00,,---,0.00,VWS V14.01,2013-02-15 14:45:00,
2013-02-15 08:50:00,59.2,53.7,30.10,ENE,62,1.0,1.0,82,0.00,,---,0.00,VWS V14.01,2013-02-15 14:50:00,
2013-02-15 08:55:00,59.9,53.7,30.10,ENE,62,1.0,1.0,80,0.00,,---,0.00,VWS V14.01,2013-02-15 14:55:00,
2013-02-15 09:00:00,60.5,53.6,30.10,ENE,62,1.0,1.0,78,0.00,,---,0.00,VWS V14.01,2013-02-15 15:00:00,
2013-02-15 09:05:00,61.3,53.3,30.10,ENE,62,1.0,1.0,75,0.00,,---,0.00,VWS V14.01,2013-02-15 15:05:00,
2013-02-15 09:10:00,62.0,52.9,30.10,ENE,62,1.0,1.0,72,0.00,,---,0.00,VWS V14.01,2013-02-15 15:10:00,
2013-02-15 09:15:00,62.6,53.5,30.10,ENE,62,2.0,3.0,72,0.00,,---,0.00,VWS V14.01,2013-02-15 15:15:00,
2013-02-15 09:20:00,63.5,53.2,30.10,ENE,62,1.0,4.0,69,0.00,,---,0.00,VWS V14.01,2013-02-15 15:20:00,
2013-02-15 09:26:00,64.7,53.1,30.10,ENE,62,1.0,4.0,66,0.00,,---,0.00,VWS V14.01,2013-02-15 15:26:00,
2013-02-15 09:31:00,65.0,53.0,30.11,ENE,62,1.0,1.0,65,0.00,,---,0.00,VWS V14.01,2013-02-15 15:31:00,
2013-02-15 09:36:00,65.6,52.7,30.11,ENE,62,2.0,4.0,63,0.00,,---,0.00,VWS V14.01,2013-02-15 15:36:00,
2013-02-15 09:41:00,66.1,53.2,30.11,ENE,78,6.0,6.0,63,0.00,,---,0.00,VWS V14.01,2013-02-15 15:41:00,
2013-02-15 09:46:00,66.3,52.9,30.11,East,94,4.0,6.0,62,0.00,,---,0.00,VWS V14.01,2013-02-15 15:46:00,
2013-02-15 09:51:00,66.3,52.9,30.11,SE,124,2.0,8.0,62,0.00,,---,0.00,VWS V14.01,2013-02-15 15:51:00,
2013-02-15 09:56:00,66.4,53.0,30.11,ESE,122,1.0,8.0,62,0.00,,---,0.00,VWS V14.01,2013-02-15 15:56:00,
2013-02-15 10:01:00,66.8,52.9,30.11,ESE,122,4.0,5.0,61,0.00,,---,0.00,VWS V14.01,2013-02-15 16:01:00,
2013-02-15 10:06:00,66.9,53.0,30.11,ESE,105,8.0,9.0,61,0.00,,---,0.00,VWS V14.01,2013-02-15 16:06:00,
2013-02-15 10:11:00,67.3,52.5,30.11,ESE,111,4.0,9.0,59,0.00,,---,0.00,VWS V14.01,2013-02-15 16:11:00,
2013-02-15 10:16:00,67.6,53.2,30.12,ESE,115,1.0,8.0,60,0.00,,---,0.00,VWS V14.01,2013-02-15 16:16:00,
2013-02-15 10:21:00,67.8,52.5,30.12,SSE,166,2.0,8.0,58,0.00,,---,0.00,VWS V14.01,2013-02-15 16:21:00,
2013-02-15 10:26:00,68.1,52.8,30.12,ESE,105,2.0,8.0,58,0.00,,---,0.00,VWS V14.01,2013-02-15 16:26:00,
2013-02-15 10:31:00,68.1,52.8,30.12,SE,126,2.0,6.0,58,0.00,,---,0.00,VWS V14.01,2013-02-15 16:31:00,
2013-02-15 10:36:00,68.1,53.2,30.12,SSE,165,1.0,8.0,59,0.00,,---,0.00,VWS V14.01,2013-02-15 16:36:00,
2013-02-15 10:41:00,68.6,53.7,30.12,East,91,2.0,8.0,59,0.00,,---,0.00,VWS V14.01,2013-02-15 16:41:00,
2013-02-15 10:46:00,69.3,54.4,30.12,ENE,76,2.0,3.0,59,0.00,,---,0.00,VWS V14.01,2013-02-15 16:46:00,
2013-02-15 10:51:00,69.8,53.9,30.12,East,98,7.0,7.0,57,0.00,,---,0.00,VWS V14.01,2013-02-15 16:51:00,
2013-02-15 10:56:00,69.9,53.5,30.12,East,86,2.0,7.0,56,0.00,,---,0.00,VWS V14.01,2013-02-15 16:56:00,
2013-02-15 11:01:00,70.1,53.7,30.12,East,84,1.0,4.0,56,0.00,,---,0.00,VWS V14.01,2013-02-15 17:01:00,
2013-02-15 11:06:00,69.9,53.5,30.12,ESE,104,6.0,11.0,56,0.00,,---,0.00,VWS V14.01,2013-02-15 17:06:00,
2013-02-15 11:11:00,69.8,53.9,30.12,East,81,6.0,11.0,57,0.00,,---,0.00,VWS V14.01,2013-02-15 17:11:00,
2013-02-15 11:16:00,69.9,54.0,30.13,East,93,3.0,4.0,57,0.00,,---,0.00,VWS V14.01,2013-02-15 17:16:00,
2013-02-15 11:21:00,69.9,54.0,30.13,NE,40,4.0,9.0,57,0.00,,---,0.00,VWS V14.01,2013-02-15 17:21:00,
2013-02-15 11:26:00,70.3,53.9,30.13,East,84,5.0,11.0,56,0.00,,---,0.00,VWS V14.01,2013-02-15 17:26:00,
2013-02-15 11:31:00,70.1,54.2,30.12,East,94,4.0,13.0,57,0.00,,---,0.00,VWS V14.01,2013-02-15 17:31:00,
2013-02-15 11:36:00,70.3,53.9,30.12,ESE,112,2.0,13.0,56,0.00,,---,0.00,VWS V14.01,2013-02-15 17:36:00,
2013-02-15 11:41:00,70.3,53.9,30.12,ENE,67,3.0,13.0,56,0.00,,---,0.00,VWS V14.01,2013-02-15 17:41:00,
2013-02-15 11:46:00,70.8,53.8,30.11,NNE,19,7.0,7.0,55,0.00,,---,0.00,VWS V14.01,2013-02-15 17:46:00,
2013-02-15 11:51:00,71.1,53.1,30.11,East,93,5.0,13.0,53,0.00,,---,0.00,VWS V14.01,2013-02-15 17:51:00,
2013-02-15 11:56:00,71.3,53.3,30.11,ENE,69,5.0,13.0,53,0.00,,---,0.00,VWS V14.01,2013-02-15 17:56:00,
2013-02-15 12:01:00,71.3,53.8,30.11,North,6,6.0,8.0,54,0.00,,---,0.00,VWS V14.01,2013-02-15 18:01:00,
2013-02-15 12:06:00,71.3,52.8,30.11,East,84,1.0,8.0,52,0.00,,---,0.00,VWS V14.01,2013-02-15 18:06:00,
2013-02-15 12:11:00,71.5,53.0,30.11,NE,40,1.0,8.0,52,0.00,,---,0.00,VWS V14.01,2013-02-15 18:11:00,
2013-02-15 12:16:00,71.8,52.7,30.11,NE,47,4.0,6.0,51,0.00,,---,0.00,VWS V14.01,2013-02-15 18:16:00,
2013-02-15 12:22:00,71.6,52.5,30.11,East,87,3.0,10.0,51,0.00,,---,0.00,VWS V14.01,2013-02-15 18:22:00,
2013-02-15 12:27:00,71.5,51.9,30.11,NE,46,3.0,10.0,50,0.00,,---,0.00,VWS V14.01,2013-02-15 18:27:00,
2013-02-15 12:32:00,71.6,52.0,30.10,ENE,69,1.0,7.0,50,0.00,,---,0.00,VWS V14.01,2013-02-15 18:32:00,
2013-02-15 12:37:00,71.5,52.4,30.10,East,97,3.0,9.0,51,0.00,,---,0.00,VWS V14.01,2013-02-15 18:37:00,
2013-02-15 12:42:00,71.8,52.7,30.10,East,80,5.0,11.0,51,0.00,,---,0.00,VWS V14.01,2013-02-15 18:42:00,
2013-02-15 12:47:00,72.0,52.9,30.10,NNE,15,3.0,9.0,51,0.00,,---,0.00,VWS V14.01,2013-02-15 18:47:00,
2013-02-15 12:52:00,72.0,52.4,30.10,ENE,77,3.0,12.0,50,0.00,,---,0.00,VWS V14.01,2013-02-15 18:52:00,
2013-02-15 12:57:00,71.8,52.7,30.10,NNE,16,11.0,13.0,51,0.00,,---,0.00,VWS V14.01,2013-02-15 18:57:00,
2013-02-15 13:02:00,71.6,52.5,30.10,ENE,69,5.0,8.0,51,0.00,,---,0.00,VWS V14.01,2013-02-15 19:02:00,
2013-02-15 13:07:00,71.3,52.8,30.10,NE,35,4.0,8.0,52,0.00,,---,0.00,VWS V14.01,2013-02-15 19:07:00,
2013-02-15 13:12:00,71.5,54.5,30.10,North,358,10.0,10.0,55,0.00,,---,0.00,VWS V14.01,2013-02-15 19:12:00,
2013-02-15 13:17:00,71.5,54.0,30.09,NE,46,4.0,10.0,54,0.00,,---,0.00,VWS V14.01,2013-02-15 19:17:00,
2013-02-15 13:22:00,71.1,53.6,30.09,ESE,118,7.0,13.0,54,0.00,,---,0.00,VWS V14.01,2013-02-15 19:22:00,
2013-02-15 13:27:00,70.8,53.8,30.09,NNE,29,2.0,13.0,55,0.00,,---,0.00,VWS V14.01,2013-02-15 19:27:00,
2013-02-15 13:32:00,70.9,53.4,30.09,NE,50,1.0,8.0,54,0.00,,---,0.00,VWS V14.01,2013-02-15 19:32:00,
2013-02-15 13:37:00,70.8,53.8,30.09,ENE,69,5.0,13.0,55,0.00,,---,0.00,VWS V14.01,2013-02-15 19:37:00,
2013-02-15 13:42:00,71.1,53.6,30.09,ENE,60,2.0,13.0,54,0.00,,---,0.00,VWS V14.01,2013-02-15 19:42:00,
2013-02-15 13:47:00,70.9,53.4,30.09,ESE,105,12.0,15.0,54,0.00,,---,0.00,VWS V14.01,2013-02-15 19:47:00,
2013-02-15 13:52:00,69.9,53.5,30.09,ENE,66,2.0,15.0,56,0.00,,---,0.00,VWS V14.01,2013-02-15 19:52:00,
2013-02-15 13:57:00,70.1,52.7,30.09,ENE,57,4.0,15.0,54,0.00,,---,0.00,VWS V14.01,2013-02-15 19:57:00,
2013-02-15 14:02:00,70.4,52.5,30.08,East,97,4.0,8.0,53,0.00,,---,0.00,VWS V14.01,2013-02-15 20:02:00,
2013-02-15 14:07:00,70.3,52.4,30.08,East,90,7.0,11.0,53,0.00,,---,0.00,VWS V14.01,2013-02-15 20:07:00,
2013-02-15 14:12:00,69.8,52.4,30.08,ESE,102,10.0,14.0,54,0.00,,---,0.00,VWS V14.01,2013-02-15 20:12:00,
2013-02-15 14:17:00,69.1,52.3,30.07,East,87,6.0,12.0,55,0.00,,---,0.00,VWS V14.01,2013-02-15 20:17:00,
2013-02-15 14:22:00,68.9,52.1,30.07,East,94,4.0,12.0,55,0.00,,---,0.00,VWS V14.01,2013-02-15 20:22:00,
2013-02-15 14:27:00,68.6,51.8,30.07,ENE,74,8.0,14.0,55,0.00,,---,0.00,VWS V14.01,2013-02-15 20:27:00,
2013-02-15 14:32:00,68.4,52.1,30.07,ENE,60,7.0,8.0,56,0.00,,---,0.00,VWS V14.01,2013-02-15 20:32:00,
2013-02-15 14:37:00,68.9,52.6,30.07,ENE,62,6.0,13.0,56,0.00,,---,0.00,VWS V14.01,2013-02-15 20:37:00,
2013-02-15 14:42:00,68.6,52.3,30.07,ESE,104,12.0,14.0,56,0.00,,---,0.00,VWS V14.01,2013-02-15 20:42:00,
2013-02-15 14:47:00,68.4,52.1,30.07,East,88,2.0,8.0,56,0.00,,---,0.00,VWS V14.01,2013-02-15 20:47:00,
2013-02-15 14:52:00,68.9,52.1,30.07,ENE,71,6.0,12.0,55,0.00,,---,0.00,VWS V14.01,2013-02-15 20:52:00,
2013-02-15 14:57:00,69.3,52.5,30.07,SE,128,11.0,14.0,55,0.00,,---,0.00,VWS V14.01,2013-02-15 20:57:00,
2013-02-15 15:02:00,68.9,51.6,30.07,NE,49,4.0,11.0,54,0.00,,---,0.00,VWS V14.01,2013-02-15 21:02:00,
2013-02-15 15:07:00,68.8,52.5,30.07,ENE,76,3.0,14.0,56,0.00,,---,0.00,VWS V14.01,2013-02-15 21:07:00,
2013-02-15 15:12:00,68.8,52.0,30.07,ENE,71,7.0,14.0,55,0.00,,---,0.00,VWS V14.01,2013-02-15 21:12:00,
2013-02-15 15:17:00,68.1,51.3,30.07,East,95,5.0,9.0,55,0.00,,---,0.00,VWS V14.01,2013-02-15 21:17:00,
2013-02-15 15:22:00,68.3,51.0,30.07,ENE,67,5.0,11.0,54,0.00,,---,0.00,VWS V14.01,2013-02-15 21:22:00,
2013-02-15 15:27:00,68.8,52.5,30.07,ENE,78,2.0,15.0,56,0.00,,---,0.00,VWS V14.01,2013-02-15 21:27:00,
2013-02-15 15:32:00,68.4,51.1,30.07,East,93,8.0,12.0,54,0.00,,---,0.00,VWS V14.01,2013-02-15 21:32:00,
2013-02-15 15:37:00,67.8,50.6,30.07,ENE,73,3.0,14.0,54,0.00,,---,0.00,VWS V14.01,2013-02-15 21:37:00,
2013-02-15 15:42:00,67.8,50.6,30.07,ENE,67,6.0,14.0,54,0.00,,---,0.00,VWS V14.01,2013-02-15 21:42:00,
2013-02-15 15:47:00,67.9,51.2,30.07,SE,134,2.0,4.0,55,0.00,,---,0.00,VWS V14.01,2013-02-15 21:47:00,
2013-02-15 15:52:00,68.1,50.8,30.07,ENE,78,5.0,8.0,54,0.00,,---,0.00,VWS V14.01,2013-02-15 21:52:00,
2013-02-15 15:58:00,68.1,50.8,30.07,ESE,107,4.0,9.0,54,0.00,,---,0.00,VWS V14.01,2013-02-15 21:58:00,
2013-02-15 16:03:00,67.9,51.2,30.06,East,95,1.0,7.0,55,0.00,,---,0.00,VWS V14.01,2013-02-15 22:03:00,
2013-02-15 16:08:00,67.9,51.2,30.06,ENE,67,8.0,12.0,55,0.00,,---,0.00,VWS V14.01,2013-02-15 22:08:00,
2013-02-15 16:13:00,67.6,51.4,30.06,ENE,78,1.0,12.0,56,0.00,,---,0.00,VWS V14.01,2013-02-15 22:13:00,
2013-02-15 16:18:00,67.6,50.4,30.06,East,86,2.0,8.0,54,0.00,,---,0.00,VWS V14.01,2013-02-15 22:18:00,
2013-02-15 16:23:00,67.9,50.2,30.06,East,80,1.0,9.0,53,0.00,,---,0.00,VWS V14.01,2013-02-15 22:23:00,
2013-02-15 16:28:00,67.3,50.1,30.06,ENE,71,1.0,9.0,54,0.00,,---,0.00,VWS V14.01,2013-02-15 22:28:00,
2013-02-15 16:33:00,67.1,50.9,30.07,East,90,7.0,7.0,56,0.00,,---,0.00,VWS V14.01,2013-02-15 22:33:00,
2013-02-15 16:38:00,67.1,50.4,30.07,East,87,1.0,7.0,55,0.00,,---,0.00,VWS V14.01,2013-02-15 22:38:00,
2013-02-15 16:43:00,66.6,50.4,30.07,ENE,62,1.0,7.0,56,0.00,,---,0.00,VWS V14.01,2013-02-15 22:43:00,
2013-02-15 20:33:00,60.4,48.6,30.15,East,84,1.0,3.0,65,0.00,,---,0.00,VWS V14.01,2013-02-16 02:33:00,
2013-02-15 20:38:00,60.2,48.8,30.15,East,84,1.0,3.0,66,0.00,,---,0.00,VWS V14.01,2013-02-16 02:38:00,
2013-02-15 20:43:00,60.1,48.7,30.15,East,84,1.0,3.0,66,0.00,,---,0.00,VWS V14.01,2013-02-16 02:43:00,
2013-02-15 20:49:00,59.9,48.9,30.16,East,86,1.0,3.0,67,0.00,,---,0.00,VWS V14.01,2013-02-16 02:49:00,
2013-02-15 20:54:00,59.8,48.8,30.16,East,84,2.0,4.0,67,0.00,,---,0.00,VWS V14.01,2013-02-16 02:54:00,
2013-02-15 20:59:00,59.8,48.8,30.16,East,84,1.0,4.0,67,0.00,,---,0.00,VWS V14.01,2013-02-16 02:59:00,
2013-02-15 21:04:00,59.9,48.9,30.16,East,86,1.0,6.0,67,0.00,,---,0.00,VWS V14.01,2013-02-16 03:04:00,
2013-02-15 21:09:00,59.9,48.9,30.16,East,84,3.0,6.0,67,0.00,,---,0.00,VWS V14.01,2013-02-16 03:09:00,
2013-02-15 21:14:00,59.9,48.9,30.16,East,86,1.0,6.0,67,0.00,,---,0.00,VWS V14.01,2013-02-16 03:14:00,
2013-02-15 21:19:00,59.9,48.9,30.17,East,84,1.0,3.0,67,0.00,,---,0.00,VWS V14.01,2013-02-16 03:19:00,
2013-02-15 21:24:00,60.1,49.1,30.17,East,84,1.0,3.0,67,0.00,,---,0.00,VWS V14.01,2013-02-16 03:24:00,
2013-02-15 21:29:00,60.1,49.1,30.17,East,84,1.0,3.0,67,0.00,,---,0.00,VWS V14.01,2013-02-16 03:29:00,
2013-02-15 21:34:00,60.1,48.7,30.17,East,84,1.0,3.0,66,0.00,,---,0.00,VWS V14.01,2013-02-16 03:34:00,
2013-02-15 21:39:00,60.1,49.1,30.17,East,84,1.0,3.0,67,0.00,,---,0.00,VWS V14.01,2013-02-16 03:39:00,
2013-02-15 21:44:00,60.2,49.2,30.17,East,84,1.0,3.0,67,0.00,,---,0.00,VWS V14.01,2013-02-16 03:44:00,
2013-02-15 21:49:00,60.2,49.2,30.18,East,84,1.0,1.0,67,0.00,,---,0.00,VWS V14.01,2013-02-16 03:49:00,
2013-02-15 21:54:00,60.2,49.2,30.18,East,84,1.0,2.0,67,0.00,,---,0.00,VWS V14.01,2013-02-16 03:54:00,
2013-02-15 21:59:00,60.4,49.4,30.18,East,84,1.0,2.0,67,0.00,,---,0.00,VWS V14.01,2013-02-16 03:59:00,
2013-02-15 22:04:00,60.4,49.4,30.19,East,84,1.0,2.0,67,0.00,,---,0.00,VWS V14.01,2013-02-16 04:04:00,
2013-02-15 22:09:00,60.5,49.5,30.19,East,86,1.0,2.0,67,0.00,,---,0.00,VWS V14.01,2013-02-16 04:09:00,
2013-02-15 22:14:00,60.7,49.7,30.19,East,84,1.0,3.0,67,0.00,,---,0.00,VWS V14.01,2013-02-16 04:14:00,
2013-02-15 22:19:00,60.7,49.7,30.19,East,84,3.0,3.0,67,0.00,,---,0.00,VWS V14.01,2013-02-16 04:19:00,
2013-02-15 22:24:00,60.9,49.9,30.19,East,84,3.0,3.0,67,0.00,,---,0.00,VWS V14.01,2013-02-16 04:24:00,
2013-02-15 22:29:00,61.0,50.0,30.19,East,84,3.0,6.0,67,0.00,,---,0.00,VWS V14.01,2013-02-16 04:29:00,
2013-02-15 22:34:00,61.0,48.8,30.21,NNW,338,7.0,10.0,64,0.00,,---,0.00,VWS V14.01,2013-02-16 04:34:00,
2013-02-15 22:39:00,60.7,47.6,30.21,North,352,16.0,21.0,62,0.00,,---,0.00,VWS V14.01,2013-02-16 04:39:00,
2013-02-15 22:44:00,59.9,46.0,30.21,North,1,12.0,22.0,60,0.00,,---,0.00,VWS V14.01,2013-02-16 04:44:00,
2013-02-15 22:49:00,59.3,45.9,30.23,North,352,6.0,15.0,61,0.00,,---,0.00,VWS V14.01,2013-02-16 04:49:00,
2013-02-15 22:54:00,58.7,45.3,30.23,North,358,11.0,15.0,61,0.00,,---,0.00,VWS V14.01,2013-02-16 04:54:00,
2013-02-15 22:59:00,58.1,44.3,30.23,NNW,341,12.0,19.0,60,0.00,,---,0.00,VWS V14.01,2013-02-16 04:59:00,
2013-02-15 23:00:00,58.1,44.3,30.24,NNW,338,18.0,19.0,60,0.00,,---,0.00,VWS V14.01,2013-02-16 05:00:00,
2013-02-15 23:01:00,58.0,44.2,30.24,North,352,14.0,14.0,60,0.00,,---,0.00,VWS V14.01,2013-02-16 05:01:00,
2013-02-15 23:06:00,57.6,44.3,30.24,NNE,15,13.0,17.0,61,0.00,,---,0.00,VWS V14.01,2013-02-16 05:06:00,
2013-02-15 23:11:00,57.3,44.0,30.24,North,357,7.0,19.0,61,0.00,,---,0.00,VWS V14.01,2013-02-16 05:11:00,
2013-02-15 23:16:00,57.2,43.9,30.24,North,359,16.0,17.0,61,0.00,,---,0.00,VWS V14.01,2013-02-16 05:16:00,
2013-02-15 23:21:00,57.0,43.7,30.24,North,359,9.0,19.0,61,0.00,,---,0.00,VWS V14.01,2013-02-16 05:21:00,
2013-02-15 23:23:00,57.0,43.7,30.24,North,4,6.0,19.0,61,0.00,,---,0.00,VWS V14.01,2013-02-16 05:23:00,
2013-02-15 23:28:00,56.9,44.0,30.24,NNE,28,7.0,20.0,62,0.00,,---,0.00,VWS V14.01,2013-02-16 05:28:00,
2013-02-15 23:33:00,56.7,43.8,30.25,North,354,12.0,15.0,62,0.00,,---,0.00,VWS V14.01,2013-02-16 05:33:00,
2013-02-15 23:38:00,56.7,43.8,30.25,NNE,30,8.0,18.0,62,0.00,,---,0.00,VWS V14.01,2013-02-16 05:38:00,
2013-02-15 23:43:00,56.5,43.7,30.25,North,8,4.0,18.0,62,0.00,,---,0.00,VWS V14.01,2013-02-16 05:43:00,
2013-02-15 23:48:00,56.3,43.5,30.25,NNW,333,17.0,21.0,62,0.00,,---,0.00,VWS V14.01,2013-02-16 05:48:00,
2013-02-15 23:53:00,56.3,43.5,30.25,NNE,14,4.0,21.0,62,0.00,,---,0.00,VWS V14.01,2013-02-16 05:53:00,
2013-02-15 23:58:00,56.2,43.4,30.25,NE,39,1.0,21.0,62,0.00,,---,0.00,VWS V14.01,2013-02-16 05:58:00,